sensor_id;sensor_type;location;lat;lon;timestamp;temperature;humidity
23540;DHT22;11947;50.810;4.394;2023-06-22T00:00:21;21.80;99.90
23540;DHT22;11947;50.810;4.394;2023-06-22T00:02:48;21.70;99.90
23540;DHT22;11947;50.810;4.394;2023-06-22T00:05:17;21.70;99.90
23540;DHT22;11947;50.810;4.394;2023-06-22T00:07:45;21.70;99.90
23540;DHT22;11947;50.810;4.394;2023-06-22T00:10:14;21.60;99.90
23540;DHT22;11947;50.810;4.394;2023-06-22T00:12:47;21.60;99.90
23540;DHT22;11947;50.810;4.394;2023-06-22T00:15:15;21.50;99.90
23540;DHT22;11947;50.810;4.394;2023-06-22T00:17:43;21.50;99.90
23540;DHT22;11947;50.810;4.394;2023-06-22T00:20:11;21.50;99.90
23540;DHT22;11947;50.810;4.394;2023-06-22T00:22:38;21.50;99.90
23540;DHT22;11947;50.810;4.394;2023-06-22T00:25:27;21.50;99.90
23540;DHT22;11947;50.810;4.394;2023-06-22T00:27:53;21.50;99.90
23540;DHT22;11947;50.810;4.394;2023-06-22T00:30:20;21.40;99.90
23540;DHT22;11947;50.810;4.394;2023-06-22T00:32:46;21.50;99.90
23540;DHT22;11947;50.810;4.394;2023-06-22T00:35:13;21.50;99.90
23540;DHT22;11947;50.810;4.394;2023-06-22T00:37:39;21.50;99.90
23540;DHT22;11947;50.810;4.394;2023-06-22T00:40:10;21.40;99.90
23540;DHT22;11947;50.810;4.394;2023-06-22T00:42:41;21.40;99.90
23540;DHT22;11947;50.810;4.394;2023-06-22T00:45:10;21.40;99.90
23540;DHT22;11947;50.810;4.394;2023-06-22T00:47:37;21.50;99.90
23540;DHT22;11947;50.810;4.394;2023-06-22T00:50:06;21.60;99.90
23540;DHT22;11947;50.810;4.394;2023-06-22T00:52:34;21.60;99.90
23540;DHT22;11947;50.810;4.394;2023-06-22T00:55:17;21.60;99.90
23540;DHT22;11947;50.810;4.394;2023-06-22T00:57:53;21.50;99.90
23540;DHT22;11947;50.810;4.394;2023-06-22T01:00:25;21.60;99.90
23540;DHT22;11947;50.810;4.394;2023-06-22T01:02:52;21.60;99.90
23540;DHT22;11947;50.810;4.394;2023-06-22T01:05:21;21.50;99.90
23540;DHT22;11947;50.810;4.394;2023-06-22T01:08:04;21.50;99.90
23540;DHT22;11947;50.810;4.394;2023-06-22T01:18:50;21.50;99.90
23540;DHT22;11947;50.810;4.394;2023-06-22T01:21:19;21.50;99.90
23540;DHT22;11947;50.810;4.394;2023-06-22T01:29:52;21.50;99.90
23540;DHT22;11947;50.810;4.394;2023-06-22T01:32:33;21.50;99.90
23540;DHT22;11947;50.810;4.394;2023-06-22T01:35:06;21.50;99.90
23540;DHT22;11947;50.810;4.394;2023-06-22T01:37:36;21.40;99.90
23540;DHT22;11947;50.810;4.394;2023-06-22T01:40:13;21.30;99.90
23540;DHT22;11947;50.810;4.394;2023-06-22T01:42:44;21.30;99.90
23540;DHT22;11947;50.810;4.394;2023-06-22T01:45:18;21.20;99.90
23540;DHT22;11947;50.810;4.394;2023-06-22T01:47:48;21.10;99.90
23540;DHT22;11947;50.810;4.394;2023-06-22T01:50:17;21.10;99.90
23540;DHT22;11947;50.810;4.394;2023-06-22T01:52:47;21.10;99.90
23540;DHT22;11947;50.810;4.394;2023-06-22T01:55:13;21.10;99.90
23540;DHT22;11947;50.810;4.394;2023-06-22T01:57:39;21.00;99.90
23540;DHT22;11947;50.810;4.394;2023-06-22T02:00:12;21.00;99.90
23540;DHT22;11947;50.810;4.394;2023-06-22T02:05:47;21.00;99.90
23540;DHT22;11947;50.810;4.394;2023-06-22T02:08:19;20.90;99.90
23540;DHT22;11947;50.810;4.394;2023-06-22T02:10:46;20.90;99.90
23540;DHT22;11947;50.810;4.394;2023-06-22T02:13:14;20.90;99.90
23540;DHT22;11947;50.810;4.394;2023-06-22T02:15:41;21.00;99.90
23540;DHT22;11947;50.810;4.394;2023-06-22T02:18:07;21.00;99.90
23540;DHT22;11947;50.810;4.394;2023-06-22T02:20:36;20.90;99.90
23540;DHT22;11947;50.810;4.394;2023-06-22T02:23:02;20.90;99.90
23540;DHT22;11947;50.810;4.394;2023-06-22T02:25:28;20.80;99.90
23540;DHT22;11947;50.810;4.394;2023-06-22T02:27:54;20.80;99.90
23540;DHT22;11947;50.810;4.394;2023-06-22T02:30:19;20.60;99.90
23540;DHT22;11947;50.810;4.394;2023-06-22T02:32:45;20.50;99.90
23540;DHT22;11947;50.810;4.394;2023-06-22T02:35:11;20.40;99.90
23540;DHT22;11947;50.810;4.394;2023-06-22T02:37:38;20.40;99.90
23540;DHT22;11947;50.810;4.394;2023-06-22T02:40:08;20.40;99.90
23540;DHT22;11947;50.810;4.394;2023-06-22T02:42:35;20.40;99.90
23540;DHT22;11947;50.810;4.394;2023-06-22T02:45:01;20.30;99.90
23540;DHT22;11947;50.810;4.394;2023-06-22T02:47:26;20.40;99.90
23540;DHT22;11947;50.810;4.394;2023-06-22T02:49:52;20.30;99.90
23540;DHT22;11947;50.810;4.394;2023-06-22T02:52:18;20.20;99.90
23540;DHT22;11947;50.810;4.394;2023-06-22T02:54:43;20.20;99.90
23540;DHT22;11947;50.810;4.394;2023-06-22T02:57:12;20.20;99.90
23540;DHT22;11947;50.810;4.394;2023-06-22T02:59:41;20.20;99.90
23540;DHT22;11947;50.810;4.394;2023-06-22T03:02:09;20.20;99.90
23540;DHT22;11947;50.810;4.394;2023-06-22T03:04:37;20.20;99.90
23540;DHT22;11947;50.810;4.394;2023-06-22T03:07:03;20.10;99.90
23540;DHT22;11947;50.810;4.394;2023-06-22T03:09:29;20.10;99.90
23540;DHT22;11947;50.810;4.394;2023-06-22T03:11:55;20.00;99.90
23540;DHT22;11947;50.810;4.394;2023-06-22T03:14:21;20.10;99.90
23540;DHT22;11947;50.810;4.394;2023-06-22T03:16:46;20.10;99.90
23540;DHT22;11947;50.810;4.394;2023-06-22T03:19:12;20.10;99.90
23540;DHT22;11947;50.810;4.394;2023-06-22T03:21:40;20.00;99.90
23540;DHT22;11947;50.810;4.394;2023-06-22T03:24:07;20.00;99.90
23540;DHT22;11947;50.810;4.394;2023-06-22T03:26:35;20.00;99.90
23540;DHT22;11947;50.810;4.394;2023-06-22T03:29:04;20.00;99.90
23540;DHT22;11947;50.810;4.394;2023-06-22T03:31:29;20.00;99.90
23540;DHT22;11947;50.810;4.394;2023-06-22T03:33:55;20.10;99.90
23540;DHT22;11947;50.810;4.394;2023-06-22T03:36:22;20.10;99.90
23540;DHT22;11947;50.810;4.394;2023-06-22T03:38:49;20.20;99.90
23540;DHT22;11947;50.810;4.394;2023-06-22T03:41:36;20.30;99.90
23540;DHT22;11947;50.810;4.394;2023-06-22T03:44:03;20.30;99.90
23540;DHT22;11947;50.810;4.394;2023-06-22T03:46:32;20.30;99.90
23540;DHT22;11947;50.810;4.394;2023-06-22T03:48:57;20.40;99.90
23540;DHT22;11947;50.810;4.394;2023-06-22T03:51:23;20.30;99.90
23540;DHT22;11947;50.810;4.394;2023-06-22T03:53:48;20.40;99.90
23540;DHT22;11947;50.810;4.394;2023-06-22T03:56:16;20.40;99.90
23540;DHT22;11947;50.810;4.394;2023-06-22T03:58:45;20.40;99.90
23540;DHT22;11947;50.810;4.394;2023-06-22T04:01:11;20.50;99.90
23540;DHT22;11947;50.810;4.394;2023-06-22T04:03:37;20.50;99.90
23540;DHT22;11947;50.810;4.394;2023-06-22T04:06:03;20.50;99.90
23540;DHT22;11947;50.810;4.394;2023-06-22T04:08:29;20.40;99.90
23540;DHT22;11947;50.810;4.394;2023-06-22T04:10:55;20.50;99.90
23540;DHT22;11947;50.810;4.394;2023-06-22T04:13:21;20.50;99.90
23540;DHT22;11947;50.810;4.394;2023-06-22T04:15:50;20.50;99.90
23540;DHT22;11947;50.810;4.394;2023-06-22T04:18:18;20.50;99.90
23540;DHT22;11947;50.810;4.394;2023-06-22T04:20:46;20.50;99.90
23540;DHT22;11947;50.810;4.394;2023-06-22T04:23:12;20.50;99.90
23540;DHT22;11947;50.810;4.394;2023-06-22T04:25:39;20.50;99.90
23540;DHT22;11947;50.810;4.394;2023-06-22T04:28:07;20.60;99.90
23540;DHT22;11947;50.810;4.394;2023-06-22T04:30:38;20.60;99.90
23540;DHT22;11947;50.810;4.394;2023-06-22T04:33:15;20.60;99.90
23540;DHT22;11947;50.810;4.394;2023-06-22T04:35:44;20.50;99.90
23540;DHT22;11947;50.810;4.394;2023-06-22T04:38:13;20.50;99.90
23540;DHT22;11947;50.810;4.394;2023-06-22T04:40:43;20.40;99.90
23540;DHT22;11947;50.810;4.394;2023-06-22T04:43:10;20.40;99.90
23540;DHT22;11947;50.810;4.394;2023-06-22T04:45:36;20.40;99.90
23540;DHT22;11947;50.810;4.394;2023-06-22T04:48:05;20.40;99.90
23540;DHT22;11947;50.810;4.394;2023-06-22T04:50:33;20.30;99.90
23540;DHT22;11947;50.810;4.394;2023-06-22T04:52:59;20.20;99.90
23540;DHT22;11947;50.810;4.394;2023-06-22T04:55:25;20.10;99.90
23540;DHT22;11947;50.810;4.394;2023-06-22T04:57:51;20.10;99.90
23540;DHT22;11947;50.810;4.394;2023-06-22T05:00:18;19.90;99.90
23540;DHT22;11947;50.810;4.394;2023-06-22T05:02:45;19.80;99.90
23540;DHT22;11947;50.810;4.394;2023-06-22T05:05:17;19.70;99.90
23540;DHT22;11947;50.810;4.394;2023-06-22T05:08:04;19.80;99.90
23540;DHT22;11947;50.810;4.394;2023-06-22T05:10:33;19.60;99.90
23540;DHT22;11947;50.810;4.394;2023-06-22T05:13:02;19.30;99.90
23540;DHT22;11947;50.810;4.394;2023-06-22T05:15:29;19.10;99.90
23540;DHT22;11947;50.810;4.394;2023-06-22T05:18:05;19.10;99.90
23540;DHT22;11947;50.810;4.394;2023-06-22T05:20:31;19.00;99.90
23540;DHT22;11947;50.810;4.394;2023-06-22T05:22:56;18.90;99.90
23540;DHT22;11947;50.810;4.394;2023-06-22T05:25:22;18.80;99.90
23540;DHT22;11947;50.810;4.394;2023-06-22T05:27:48;18.80;99.90
23540;DHT22;11947;50.810;4.394;2023-06-22T05:30:15;18.90;99.90
23540;DHT22;11947;50.810;4.394;2023-06-22T05:32:47;18.90;99.90
23540;DHT22;11947;50.810;4.394;2023-06-22T05:35:13;18.90;99.90
23540;DHT22;11947;50.810;4.394;2023-06-22T05:37:39;19.00;99.90
23540;DHT22;11947;50.810;4.394;2023-06-22T05:40:05;19.00;99.90
23540;DHT22;11947;50.810;4.394;2023-06-22T05:42:32;19.10;99.90
23540;DHT22;11947;50.810;4.394;2023-06-22T05:44:58;19.10;99.90
23540;DHT22;11947;50.810;4.394;2023-06-22T05:47:24;19.00;99.90
23540;DHT22;11947;50.810;4.394;2023-06-22T05:49:49;19.00;99.90
23540;DHT22;11947;50.810;4.394;2023-06-22T05:52:15;19.10;99.90
23540;DHT22;11947;50.810;4.394;2023-06-22T05:54:41;19.00;99.90
23540;DHT22;11947;50.810;4.394;2023-06-22T05:57:08;19.10;99.90
23540;DHT22;11947;50.810;4.394;2023-06-22T05:59:40;19.10;99.90
23540;DHT22;11947;50.810;4.394;2023-06-22T06:02:05;19.10;99.90
23540;DHT22;11947;50.810;4.394;2023-06-22T06:04:31;19.20;99.90
23540;DHT22;11947;50.810;4.394;2023-06-22T06:06:57;19.10;99.90
23540;DHT22;11947;50.810;4.394;2023-06-22T06:09:23;19.10;99.90
23540;DHT22;11947;50.810;4.394;2023-06-22T06:11:50;19.10;99.90
23540;DHT22;11947;50.810;4.394;2023-06-22T06:14:15;19.10;99.90
23540;DHT22;11947;50.810;4.394;2023-06-22T06:16:42;19.10;99.90
23540;DHT22;11947;50.810;4.394;2023-06-22T06:19:08;19.20;99.90
23540;DHT22;11947;50.810;4.394;2023-06-22T06:21:33;19.30;99.90
23540;DHT22;11947;50.810;4.394;2023-06-22T06:23:59;19.40;99.90
23540;DHT22;11947;50.810;4.394;2023-06-22T06:26:25;19.50;99.90
23540;DHT22;11947;50.810;4.394;2023-06-22T06:28:56;19.50;99.90
23540;DHT22;11947;50.810;4.394;2023-06-22T06:31:22;19.60;99.90
23540;DHT22;11947;50.810;4.394;2023-06-22T06:33:48;19.60;99.90
23540;DHT22;11947;50.810;4.394;2023-06-22T06:36:14;19.70;99.90
23540;DHT22;11947;50.810;4.394;2023-06-22T06:38:39;19.70;99.90
23540;DHT22;11947;50.810;4.394;2023-06-22T06:41:05;19.80;99.90
23540;DHT22;11947;50.810;4.394;2023-06-22T06:43:30;19.80;99.90
23540;DHT22;11947;50.810;4.394;2023-06-22T06:45:56;19.80;99.90
23540;DHT22;11947;50.810;4.394;2023-06-22T06:48:21;19.80;99.90
23540;DHT22;11947;50.810;4.394;2023-06-22T06:50:47;19.80;99.90
23540;DHT22;11947;50.810;4.394;2023-06-22T06:53:13;19.80;99.90
23540;DHT22;11947;50.810;4.394;2023-06-22T06:55:38;19.80;99.90
23540;DHT22;11947;50.810;4.394;2023-06-22T06:58:04;19.80;99.90
23540;DHT22;11947;50.810;4.394;2023-06-22T07:00:33;19.90;99.90
23540;DHT22;11947;50.810;4.394;2023-06-22T07:02:58;20.00;99.90
23540;DHT22;11947;50.810;4.394;2023-06-22T07:05:24;20.20;99.90
23540;DHT22;11947;50.810;4.394;2023-06-22T07:07:49;20.20;99.90
23540;DHT22;11947;50.810;4.394;2023-06-22T07:10:15;20.20;99.90
23540;DHT22;11947;50.810;4.394;2023-06-22T07:12:41;20.30;99.90
23540;DHT22;11947;50.810;4.394;2023-06-22T07:15:08;20.20;99.90
23540;DHT22;11947;50.810;4.394;2023-06-22T07:17:35;20.20;99.90
23540;DHT22;11947;50.810;4.394;2023-06-22T07:20:26;20.40;99.90
23540;DHT22;11947;50.810;4.394;2023-06-22T07:23:05;20.50;99.90
23540;DHT22;11947;50.810;4.394;2023-06-22T07:26:10;20.90;99.90
23540;DHT22;11947;50.810;4.394;2023-06-22T07:28:38;21.30;99.90
23540;DHT22;11947;50.810;4.394;2023-06-22T07:31:06;21.60;99.90
23540;DHT22;11947;50.810;4.394;2023-06-22T07:33:31;21.80;99.90
23540;DHT22;11947;50.810;4.394;2023-06-22T07:35:57;21.80;99.90
23540;DHT22;11947;50.810;4.394;2023-06-22T07:38:23;21.80;99.90
23540;DHT22;11947;50.810;4.394;2023-06-22T07:40:49;21.60;99.90
23540;DHT22;11947;50.810;4.394;2023-06-22T07:43:16;21.40;99.90
23540;DHT22;11947;50.810;4.394;2023-06-22T07:45:51;21.40;99.90
23540;DHT22;11947;50.810;4.394;2023-06-22T07:48:22;21.30;99.90
23540;DHT22;11947;50.810;4.394;2023-06-22T07:50:48;21.30;99.90
23540;DHT22;11947;50.810;4.394;2023-06-22T07:53:14;21.20;99.90
23540;DHT22;11947;50.810;4.394;2023-06-22T07:55:40;21.10;99.90
23540;DHT22;11947;50.810;4.394;2023-06-22T07:58:06;21.00;99.90
23540;DHT22;11947;50.810;4.394;2023-06-22T08:00:33;21.10;99.90
23540;DHT22;11947;50.810;4.394;2023-06-22T08:02:58;21.10;99.90
23540;DHT22;11947;50.810;4.394;2023-06-22T08:05:24;21.20;99.90
23540;DHT22;11947;50.810;4.394;2023-06-22T08:07:50;21.30;99.90
23540;DHT22;11947;50.810;4.394;2023-06-22T08:10:15;21.30;99.90
23540;DHT22;11947;50.810;4.394;2023-06-22T08:12:41;21.30;99.90
23540;DHT22;11947;50.810;4.394;2023-06-22T08:15:07;21.20;99.90
23540;DHT22;11947;50.810;4.394;2023-06-22T08:17:33;21.20;99.90
23540;DHT22;11947;50.810;4.394;2023-06-22T08:19:59;21.10;99.90
23540;DHT22;11947;50.810;4.394;2023-06-22T08:22:25;21.10;99.90
23540;DHT22;11947;50.810;4.394;2023-06-22T08:24:51;21.10;99.90
23540;DHT22;11947;50.810;4.394;2023-06-22T08:27:17;21.00;99.90
23540;DHT22;11947;50.810;4.394;2023-06-22T08:29:44;21.00;99.90
23540;DHT22;11947;50.810;4.394;2023-06-22T08:32:13;20.90;99.90
23540;DHT22;11947;50.810;4.394;2023-06-22T08:34:38;20.90;99.90
23540;DHT22;11947;50.810;4.394;2023-06-22T08:37:10;20.90;99.90
23540;DHT22;11947;50.810;4.394;2023-06-22T08:39:36;20.90;99.90
23540;DHT22;11947;50.810;4.394;2023-06-22T08:42:02;20.90;99.90
23540;DHT22;11947;50.810;4.394;2023-06-22T08:44:28;20.90;99.90
23540;DHT22;11947;50.810;4.394;2023-06-22T08:46:54;20.90;99.90
23540;DHT22;11947;50.810;4.394;2023-06-22T08:49:19;20.80;99.90
23540;DHT22;11947;50.810;4.394;2023-06-22T08:51:45;20.80;99.90
23540;DHT22;11947;50.810;4.394;2023-06-22T08:54:13;20.80;99.90
23540;DHT22;11947;50.810;4.394;2023-06-22T08:56:39;20.80;99.90
23540;DHT22;11947;50.810;4.394;2023-06-22T08:59:04;20.80;99.90
23540;DHT22;11947;50.810;4.394;2023-06-22T09:01:33;20.80;99.90
23540;DHT22;11947;50.810;4.394;2023-06-22T09:03:58;20.90;99.90
23540;DHT22;11947;50.810;4.394;2023-06-22T09:06:25;21.00;99.90
23540;DHT22;11947;50.810;4.394;2023-06-22T09:08:51;21.00;99.90
23540;DHT22;11947;50.810;4.394;2023-06-22T09:11:16;21.00;99.90
23540;DHT22;11947;50.810;4.394;2023-06-22T09:13:42;21.00;99.90
23540;DHT22;11947;50.810;4.394;2023-06-22T09:16:08;21.10;99.90
23540;DHT22;11947;50.810;4.394;2023-06-22T09:18:34;21.10;99.90
23540;DHT22;11947;50.810;4.394;2023-06-22T09:21:00;21.10;99.90
23540;DHT22;11947;50.810;4.394;2023-06-22T09:23:26;21.10;99.90
23540;DHT22;11947;50.810;4.394;2023-06-22T09:25:51;21.00;99.90
23540;DHT22;11947;50.810;4.394;2023-06-22T09:28:17;20.90;99.90
23540;DHT22;11947;50.810;4.394;2023-06-22T09:30:43;20.80;99.90
23540;DHT22;11947;50.810;4.394;2023-06-22T09:33:10;20.60;99.90
23540;DHT22;11947;50.810;4.394;2023-06-22T09:35:35;20.50;99.90
23540;DHT22;11947;50.810;4.394;2023-06-22T09:38:01;20.30;99.90
23540;DHT22;11947;50.810;4.394;2023-06-22T09:40:26;20.10;99.90
23540;DHT22;11947;50.810;4.394;2023-06-22T09:42:53;19.80;99.90
23540;DHT22;11947;50.810;4.394;2023-06-22T09:45:19;19.50;99.90
23540;DHT22;11947;50.810;4.394;2023-06-22T09:47:44;19.10;99.90
23540;DHT22;11947;50.810;4.394;2023-06-22T09:50:10;18.80;99.90
23540;DHT22;11947;50.810;4.394;2023-06-22T09:52:36;18.70;99.90
23540;DHT22;11947;50.810;4.394;2023-06-22T09:55:02;18.60;99.90
23540;DHT22;11947;50.810;4.394;2023-06-22T09:57:29;18.60;99.90
23540;DHT22;11947;50.810;4.394;2023-06-22T09:59:55;18.60;99.90
23540;DHT22;11947;50.810;4.394;2023-06-22T10:02:21;18.50;99.90
23540;DHT22;11947;50.810;4.394;2023-06-22T10:04:47;18.50;99.90
23540;DHT22;11947;50.810;4.394;2023-06-22T10:07:13;18.50;99.90
23540;DHT22;11947;50.810;4.394;2023-06-22T10:09:38;18.50;99.90
23540;DHT22;11947;50.810;4.394;2023-06-22T10:12:04;18.60;99.90
23540;DHT22;11947;50.810;4.394;2023-06-22T10:14:30;18.60;99.90
23540;DHT22;11947;50.810;4.394;2023-06-22T10:16:56;18.60;99.90
23540;DHT22;11947;50.810;4.394;2023-06-22T10:19:22;18.80;99.90
23540;DHT22;11947;50.810;4.394;2023-06-22T10:21:47;18.80;99.90
23540;DHT22;11947;50.810;4.394;2023-06-22T10:24:13;18.90;99.90
23540;DHT22;11947;50.810;4.394;2023-06-22T10:26:39;18.80;99.90
23540;DHT22;11947;50.810;4.394;2023-06-22T10:29:04;18.80;99.90
23540;DHT22;11947;50.810;4.394;2023-06-22T10:31:30;18.80;99.90
23540;DHT22;11947;50.810;4.394;2023-06-22T10:33:56;18.80;99.90
23540;DHT22;11947;50.810;4.394;2023-06-22T10:36:22;18.90;99.90
23540;DHT22;11947;50.810;4.394;2023-06-22T10:38:48;18.90;99.90
23540;DHT22;11947;50.810;4.394;2023-06-22T10:41:16;18.80;99.90
23540;DHT22;11947;50.810;4.394;2023-06-22T10:43:42;18.80;99.90
23540;DHT22;11947;50.810;4.394;2023-06-22T10:46:08;18.80;99.90
23540;DHT22;11947;50.810;4.394;2023-06-22T10:48:34;18.80;99.90
23540;DHT22;11947;50.810;4.394;2023-06-22T10:51:00;18.70;99.90
23540;DHT22;11947;50.810;4.394;2023-06-22T10:53:25;18.60;99.90
23540;DHT22;11947;50.810;4.394;2023-06-22T10:55:51;18.70;99.90
23540;DHT22;11947;50.810;4.394;2023-06-22T10:58:18;18.80;99.90
23540;DHT22;11947;50.810;4.394;2023-06-22T11:00:44;18.90;99.90
23540;DHT22;11947;50.810;4.394;2023-06-22T11:03:10;18.90;99.90
23540;DHT22;11947;50.810;4.394;2023-06-22T11:05:36;19.00;99.90
23540;DHT22;11947;50.810;4.394;2023-06-22T11:08:01;19.00;99.90
23540;DHT22;11947;50.810;4.394;2023-06-22T11:10:27;19.00;99.90
23540;DHT22;11947;50.810;4.394;2023-06-22T11:12:56;19.00;99.90
23540;DHT22;11947;50.810;4.394;2023-06-22T11:15:23;19.10;99.90
23540;DHT22;11947;50.810;4.394;2023-06-22T11:17:49;19.20;99.90
23540;DHT22;11947;50.810;4.394;2023-06-22T11:20:15;19.20;99.90
23540;DHT22;11947;50.810;4.394;2023-06-22T11:22:41;19.20;99.90
23540;DHT22;11947;50.810;4.394;2023-06-22T11:25:07;19.20;99.90
23540;DHT22;11947;50.810;4.394;2023-06-22T11:27:33;19.10;99.90
23540;DHT22;11947;50.810;4.394;2023-06-22T11:29:59;19.10;99.90
23540;DHT22;11947;50.810;4.394;2023-06-22T11:32:24;19.20;99.90
23540;DHT22;11947;50.810;4.394;2023-06-22T11:34:50;19.10;99.90
23540;DHT22;11947;50.810;4.394;2023-06-22T11:37:16;19.10;99.90
23540;DHT22;11947;50.810;4.394;2023-06-22T11:39:42;19.20;99.90
23540;DHT22;11947;50.810;4.394;2023-06-22T11:42:08;19.20;99.90
23540;DHT22;11947;50.810;4.394;2023-06-22T11:44:34;19.30;99.90
23540;DHT22;11947;50.810;4.394;2023-06-22T11:47:00;19.30;99.90
23540;DHT22;11947;50.810;4.394;2023-06-22T11:49:27;19.30;99.90
23540;DHT22;11947;50.810;4.394;2023-06-22T11:51:52;19.20;99.90
23540;DHT22;11947;50.810;4.394;2023-06-22T11:54:18;19.20;99.90
23540;DHT22;11947;50.810;4.394;2023-06-22T11:56:44;19.20;99.90
23540;DHT22;11947;50.810;4.394;2023-06-22T11:59:10;19.30;99.90
23540;DHT22;11947;50.810;4.394;2023-06-22T12:01:35;19.30;99.90
23540;DHT22;11947;50.810;4.394;2023-06-22T12:04:01;19.30;99.90
23540;DHT22;11947;50.810;4.394;2023-06-22T12:06:26;19.40;99.90
23540;DHT22;11947;50.810;4.394;2023-06-22T12:08:52;19.40;99.90
23540;DHT22;11947;50.810;4.394;2023-06-22T12:11:18;19.30;99.90
23540;DHT22;11947;50.810;4.394;2023-06-22T12:13:43;19.30;99.90
23540;DHT22;11947;50.810;4.394;2023-06-22T12:16:09;19.20;99.90
23540;DHT22;11947;50.810;4.394;2023-06-22T12:18:35;19.30;99.90
23540;DHT22;11947;50.810;4.394;2023-06-22T12:21:00;19.20;99.90
23540;DHT22;11947;50.810;4.394;2023-06-22T12:23:26;19.30;99.90
23540;DHT22;11947;50.810;4.394;2023-06-22T12:25:52;19.30;99.90
23540;DHT22;11947;50.810;4.394;2023-06-22T12:28:17;19.20;99.90
23540;DHT22;11947;50.810;4.394;2023-06-22T12:30:43;19.10;99.90
23540;DHT22;11947;50.810;4.394;2023-06-22T12:33:09;19.00;99.90
23540;DHT22;11947;50.810;4.394;2023-06-22T12:35:34;19.20;99.90
23540;DHT22;11947;50.810;4.394;2023-06-22T12:38:00;19.10;99.90
23540;DHT22;11947;50.810;4.394;2023-06-22T12:40:26;19.10;99.90
23540;DHT22;11947;50.810;4.394;2023-06-22T12:42:51;19.00;99.90
23540;DHT22;11947;50.810;4.394;2023-06-22T12:45:17;19.00;99.90
23540;DHT22;11947;50.810;4.394;2023-06-22T12:47:44;18.90;99.90
23540;DHT22;11947;50.810;4.394;2023-06-22T12:50:09;18.90;99.90
23540;DHT22;11947;50.810;4.394;2023-06-22T12:52:37;18.80;99.90
23540;DHT22;11947;50.810;4.394;2023-06-22T12:55:06;18.80;99.90
23540;DHT22;11947;50.810;4.394;2023-06-22T12:57:32;18.80;99.90
23540;DHT22;11947;50.810;4.394;2023-06-22T12:59:58;18.80;99.90
23540;DHT22;11947;50.810;4.394;2023-06-22T13:02:25;18.80;99.90
23540;DHT22;11947;50.810;4.394;2023-06-22T13:04:54;18.80;99.90
23540;DHT22;11947;50.810;4.394;2023-06-22T13:07:31;18.80;99.90
23540;DHT22;11947;50.810;4.394;2023-06-22T13:09:57;18.70;99.90
23540;DHT22;11947;50.810;4.394;2023-06-22T13:12:22;18.80;99.90
23540;DHT22;11947;50.810;4.394;2023-06-22T13:14:49;19.00;99.90
23540;DHT22;11947;50.810;4.394;2023-06-22T13:17:14;19.00;99.90
23540;DHT22;11947;50.810;4.394;2023-06-22T13:19:40;19.10;99.90
23540;DHT22;11947;50.810;4.394;2023-06-22T13:22:32;19.10;99.90
23540;DHT22;11947;50.810;4.394;2023-06-22T13:24:59;19.10;99.90
23540;DHT22;11947;50.810;4.394;2023-06-22T13:27:25;19.10;99.90
23540;DHT22;11947;50.810;4.394;2023-06-22T13:29:50;19.20;99.90
23540;DHT22;11947;50.810;4.394;2023-06-22T13:32:16;19.20;99.90
23540;DHT22;11947;50.810;4.394;2023-06-22T13:34:43;19.20;99.90
23540;DHT22;11947;50.810;4.394;2023-06-22T13:37:09;19.20;99.90
23540;DHT22;11947;50.810;4.394;2023-06-22T13:39:51;19.20;99.90
23540;DHT22;11947;50.810;4.394;2023-06-22T13:42:22;19.20;99.90
23540;DHT22;11947;50.810;4.394;2023-06-22T13:44:47;19.30;99.90
23540;DHT22;11947;50.810;4.394;2023-06-22T13:47:13;19.30;99.90
23540;DHT22;11947;50.810;4.394;2023-06-22T13:49:40;19.20;99.90
23540;DHT22;11947;50.810;4.394;2023-06-22T13:52:06;19.20;99.90
23540;DHT22;11947;50.810;4.394;2023-06-22T13:54:36;19.10;99.90
23540;DHT22;11947;50.810;4.394;2023-06-22T13:57:02;19.10;99.90
23540;DHT22;11947;50.810;4.394;2023-06-22T13:59:27;19.20;99.90
23540;DHT22;11947;50.810;4.394;2023-06-22T14:01:54;19.20;99.90
23540;DHT22;11947;50.810;4.394;2023-06-22T14:04:19;19.20;99.90
23540;DHT22;11947;50.810;4.394;2023-06-22T14:06:45;19.10;99.90
23540;DHT22;11947;50.810;4.394;2023-06-22T14:09:11;19.20;99.90
23540;DHT22;11947;50.810;4.394;2023-06-22T14:11:36;19.20;99.90
23540;DHT22;11947;50.810;4.394;2023-06-22T14:14:03;19.20;99.90
23540;DHT22;11947;50.810;4.394;2023-06-22T14:16:28;19.20;99.90
23540;DHT22;11947;50.810;4.394;2023-06-22T14:18:54;19.30;99.90
23540;DHT22;11947;50.810;4.394;2023-06-22T14:21:20;19.30;99.90
23540;DHT22;11947;50.810;4.394;2023-06-22T14:23:45;19.30;99.90
23540;DHT22;11947;50.810;4.394;2023-06-22T14:26:19;19.30;99.90
23540;DHT22;11947;50.810;4.394;2023-06-22T14:28:48;19.30;99.90
23540;DHT22;11947;50.810;4.394;2023-06-22T14:31:18;19.30;99.90
23540;DHT22;11947;50.810;4.394;2023-06-22T14:33:54;19.40;99.90
23540;DHT22;11947;50.810;4.394;2023-06-22T14:36:22;19.40;99.90
23540;DHT22;11947;50.810;4.394;2023-06-22T14:39:06;19.40;99.90
23540;DHT22;11947;50.810;4.394;2023-06-22T14:41:31;19.30;99.90
23540;DHT22;11947;50.810;4.394;2023-06-22T14:44:04;19.30;99.90
23540;DHT22;11947;50.810;4.394;2023-06-22T14:47:11;19.30;99.90
23540;DHT22;11947;50.810;4.394;2023-06-22T14:50:07;19.30;99.90
23540;DHT22;11947;50.810;4.394;2023-06-22T14:52:33;19.30;99.90
23540;DHT22;11947;50.810;4.394;2023-06-22T14:54:58;19.40;99.90
23540;DHT22;11947;50.810;4.394;2023-06-22T14:57:24;19.40;99.90
23540;DHT22;11947;50.810;4.394;2023-06-22T14:59:50;19.40;99.90
23540;DHT22;11947;50.810;4.394;2023-06-22T15:02:16;19.40;99.90
23540;DHT22;11947;50.810;4.394;2023-06-22T15:05:08;19.30;99.90
23540;DHT22;11947;50.810;4.394;2023-06-22T15:08:02;19.40;99.90
23540;DHT22;11947;50.810;4.394;2023-06-22T15:11:19;19.40;99.90
23540;DHT22;11947;50.810;4.394;2023-06-22T15:13:45;19.40;99.90
23540;DHT22;11947;50.810;4.394;2023-06-22T15:16:52;19.50;99.90
23540;DHT22;11947;50.810;4.394;2023-06-22T15:19:26;19.50;99.90
23540;DHT22;11947;50.810;4.394;2023-06-22T15:22:56;19.50;99.90
23540;DHT22;11947;50.810;4.394;2023-06-22T15:25:35;19.50;99.90
23540;DHT22;11947;50.810;4.394;2023-06-22T15:28:01;19.50;99.90
23540;DHT22;11947;50.810;4.394;2023-06-22T15:30:27;19.60;99.90
23540;DHT22;11947;50.810;4.394;2023-06-22T15:32:53;19.70;99.90
23540;DHT22;11947;50.810;4.394;2023-06-22T15:35:19;19.50;99.90
23540;DHT22;11947;50.810;4.394;2023-06-22T15:37:45;19.50;99.90
23540;DHT22;11947;50.810;4.394;2023-06-22T15:40:11;19.50;99.90
23540;DHT22;11947;50.810;4.394;2023-06-22T15:42:37;19.50;99.90
23540;DHT22;11947;50.810;4.394;2023-06-22T15:45:04;19.50;99.90
23540;DHT22;11947;50.810;4.394;2023-06-22T15:47:29;19.50;99.90
23540;DHT22;11947;50.810;4.394;2023-06-22T15:49:55;19.50;99.90
23540;DHT22;11947;50.810;4.394;2023-06-22T15:52:21;19.60;99.90